createdAt,value
2018-03-11T00:00:50.527Z,44.08
2018-03-11T00:01:50.651Z,43.99
2018-03-11T00:02:50.507Z,43.91
2018-03-11T00:03:50.507Z,44.05
2018-03-11T00:04:50.697Z,43.99
2018-03-11T00:05:50.512Z,43.92
2018-03-11T00:06:50.735Z,44.05
2018-03-11T00:07:51.462Z,44.03
2018-03-11T00:08:51.537Z,43.97
2018-03-11T00:09:50.953Z,44.07
2018-03-11T00:10:50.878Z,44.01
2018-03-11T00:11:50.557Z,43.9
2018-03-11T00:12:50.701Z,44.07
2018-03-11T00:13:50.494Z,43.98
2018-03-11T00:14:50.519Z,43.89
2018-03-11T00:15:50.500Z,44.07
2018-03-11T00:16:50.525Z,43.93
2018-03-11T00:17:50.497Z,43.89
2018-03-11T00:18:50.510Z,44.06
2018-03-11T00:19:50.486Z,43.96
2018-03-11T00:20:50.521Z,43.85
2018-03-11T00:21:50.499Z,44.05
2018-03-11T00:22:50.483Z,43.93
2018-03-11T00:23:50.503Z,43.85
2018-03-11T00:24:50.492Z,44
2018-03-11T00:25:50.529Z,43.95
2018-03-11T00:26:50.496Z,43.84
2018-03-11T00:27:50.535Z,44.01
2018-03-11T00:28:50.523Z,43.94
2018-03-11T00:29:50.512Z,43.85
2018-03-11T00:30:50.492Z,44
2018-03-11T00:31:50.489Z,43.94
2018-03-11T00:32:50.489Z,43.88
2018-03-11T00:33:50.486Z,44.01
2018-03-11T00:34:50.517Z,44
2018-03-11T00:35:50.501Z,43.85
2018-03-11T00:36:50.515Z,44.03
2018-03-11T00:37:50.504Z,43.92
2018-03-11T00:38:50.494Z,43.86
2018-03-11T00:39:50.518Z,44.02
2018-03-11T00:40:50.487Z,44.02
2018-03-11T00:41:50.526Z,43.91
2018-03-11T00:42:50.493Z,44.01
2018-03-11T00:43:50.805Z,43.95
2018-03-11T00:44:50.487Z,43.83
2018-03-11T00:45:50.497Z,44.04
2018-03-11T00:46:50.503Z,43.91
2018-03-11T00:47:50.484Z,43.86
2018-03-11T00:48:50.489Z,44.01
2018-03-11T00:49:50.482Z,43.96
2018-03-11T00:50:50.490Z,43.83
2018-03-11T00:51:50.473Z,43.96
2018-03-11T00:52:50.493Z,43.91
2018-03-11T00:53:50.476Z,43.87
2018-03-11T00:54:50.549Z,43.93
2018-03-11T00:55:50.479Z,43.91
2018-03-11T00:56:50.498Z,43.85
2018-03-11T00:57:50.483Z,44.01
2018-03-11T00:58:50.484Z,43.93
2018-03-11T00:59:50.496Z,43.89
2018-03-11T01:00:50.530Z,44
2018-03-11T01:01:50.480Z,43.94
2018-03-11T01:02:50.482Z,43.85
2018-03-11T01:03:50.484Z,43.94
2018-03-11T01:04:50.514Z,43.92
2018-03-11T01:05:50.507Z,43.79
2018-03-11T01:06:50.487Z,44.01
2018-03-11T01:07:50.468Z,43.98
2018-03-11T01:08:50.486Z,43.88
2018-03-11T01:09:50.528Z,44.01
2018-03-11T01:10:50.483Z,43.94
2018-03-11T01:11:50.482Z,43.83
2018-03-11T01:12:50.480Z,44
2018-03-11T01:13:50.484Z,43.94
2018-03-11T01:14:50.506Z,43.86
2018-03-11T01:15:50.498Z,43.99
2018-03-11T01:16:50.497Z,43.99
2018-03-11T01:17:50.481Z,43.8
2018-03-11T01:18:50.474Z,43.96
2018-03-11T01:19:50.484Z,43.94
2018-03-11T01:20:50.534Z,43.87
2018-03-11T01:21:50.474Z,44.04
2018-03-11T01:22:50.459Z,44.01
2018-03-11T01:23:50.470Z,43.85
2018-03-11T01:24:50.498Z,43.99
2018-03-11T01:25:50.608Z,43.95
2018-03-11T01:26:50.486Z,43.89
2018-03-11T01:27:50.463Z,43.99
2018-03-11T01:28:50.495Z,43.96
2018-03-11T01:29:50.444Z,43.8
2018-03-11T01:30:50.502Z,44.01
2018-03-11T01:31:50.461Z,43.96
2018-03-11T01:32:50.498Z,43.83
2018-03-11T01:33:50.490Z,43.94
2018-03-11T01:34:50.578Z,43.92
2018-03-11T01:35:50.596Z,43.85
2018-03-11T01:36:50.498Z,43.97
2018-03-11T01:37:50.472Z,43.97
2018-03-11T01:38:50.465Z,43.88
2018-03-11T01:39:50.481Z,44
2018-03-11T01:40:50.505Z,43.96
2018-03-11T01:41:50.508Z,43.88
2018-03-11T01:42:50.465Z,43.97
2018-03-11T01:43:50.457Z,43.98
2018-03-11T01:44:50.465Z,43.86
2018-03-11T01:45:50.501Z,44
2018-03-11T01:46:50.477Z,43.97
2018-03-11T01:47:50.477Z,43.9
2018-03-11T01:48:50.462Z,43.97
2018-03-11T01:49:50.451Z,43.96
2018-03-11T01:50:50.734Z,43.86
2018-03-11T01:51:50.465Z,43.96
2018-03-11T01:52:50.451Z,44.03
2018-03-11T01:53:50.511Z,43.9
2018-03-11T01:54:50.482Z,44.01
2018-03-11T01:55:50.487Z,43.94
2018-03-11T01:56:50.444Z,43.93
2018-03-11T01:57:50.461Z,44
2018-03-11T01:58:50.473Z,43.97
2018-03-11T01:59:50.475Z,43.92
2018-03-11T02:00:50.475Z,44.02
2018-03-11T02:01:50.473Z,43.94
2018-03-11T02:02:50.474Z,43.86
2018-03-11T02:03:50.451Z,43.98
2018-03-11T02:04:50.511Z,43.99
2018-03-11T02:05:50.469Z,43.9
2018-03-11T02:06:50.474Z,44.04
2018-03-11T02:07:50.465Z,43.96
2018-03-11T02:08:50.521Z,43.9
2018-03-11T02:09:50.456Z,44.03
2018-03-11T02:10:50.473Z,44
2018-03-11T02:11:50.472Z,43.88
2018-03-11T02:12:50.527Z,44.03
2018-03-11T02:13:50.480Z,43.99
2018-03-11T02:14:50.465Z,43.87
2018-03-11T02:15:50.467Z,44.07
2018-03-11T02:16:50.477Z,44.02
2018-03-11T02:17:50.465Z,43.94
2018-03-11T02:18:50.480Z,44.07
2018-03-11T02:19:50.451Z,44
2018-03-11T02:20:50.464Z,43.85
2018-03-11T02:21:50.470Z,44.03
2018-03-11T02:22:50.465Z,43.97
2018-03-11T02:23:50.467Z,43.88
2018-03-11T02:24:50.480Z,44.05
2018-03-11T02:25:50.465Z,44
2018-03-11T02:26:50.541Z,43.88
2018-03-11T02:27:50.460Z,43.97
2018-03-11T02:28:50.444Z,44.02
2018-03-11T02:29:50.438Z,43.85
2018-03-11T02:30:50.770Z,44
2018-03-11T02:31:50.564Z,44.01
2018-03-11T02:32:50.469Z,43.92
2018-03-11T02:33:50.470Z,44.04
2018-03-11T02:34:50.511Z,43.94
2018-03-11T02:35:50.536Z,43.87
2018-03-11T02:36:50.464Z,44.02
2018-03-11T02:37:50.457Z,44.03
2018-03-11T02:38:50.476Z,43.91
2018-03-11T02:39:50.460Z,44
2018-03-11T02:40:50.462Z,43.99
2018-03-11T02:41:50.465Z,43.88
2018-03-11T02:42:50.454Z,44.04
2018-03-11T02:43:50.478Z,43.98
2018-03-11T02:44:50.486Z,43.92
2018-03-11T02:45:50.471Z,44.04
2018-03-11T02:46:50.462Z,44.03
2018-03-11T02:47:50.502Z,43.88
2018-03-11T02:48:50.504Z,44.04
2018-03-11T02:49:50.480Z,44.02
2018-03-11T02:50:50.472Z,43.93
2018-03-11T02:51:50.450Z,44.01
2018-03-11T02:52:50.478Z,44.06
2018-03-11T02:53:50.465Z,43.93
2018-03-11T02:54:50.478Z,44.03
2018-03-11T02:55:50.726Z,43.99
2018-03-11T02:56:50.444Z,43.93
2018-03-11T02:57:50.457Z,44.05
2018-03-11T02:58:50.440Z,43.99
2018-03-11T02:59:50.449Z,43.84
2018-03-11T03:00:50.476Z,44.01
2018-03-11T03:01:50.484Z,43.93
2018-03-11T03:02:50.448Z,43.95
2018-03-11T03:03:50.461Z,44.09
2018-03-11T03:04:50.458Z,43.97
2018-03-11T03:05:50.469Z,43.89
2018-03-11T03:06:50.493Z,44.04
2018-03-11T03:07:50.452Z,43.98
2018-03-11T03:08:50.449Z,43.87
2018-03-11T03:09:50.453Z,44.06
2018-03-11T03:10:50.482Z,43.99
2018-03-11T03:11:50.477Z,43.87
2018-03-11T03:12:50.458Z,44.01
2018-03-11T03:13:50.462Z,44.03
2018-03-11T03:14:50.437Z,43.92
2018-03-11T03:15:50.684Z,44.05
2018-03-11T03:16:50.447Z,43.96
2018-03-11T03:17:50.506Z,43.95
2018-03-11T03:18:50.431Z,44.04
2018-03-11T03:19:50.451Z,44.01
2018-03-11T03:20:50.729Z,43.9
2018-03-11T03:21:50.484Z,44.02
2018-03-11T03:22:50.439Z,43.98
2018-03-11T03:23:50.437Z,43.88
2018-03-11T03:24:50.413Z,44.02
2018-03-11T03:25:50.513Z,43.99
2018-03-11T03:26:50.439Z,43.86
2018-03-11T03:27:50.458Z,44.05
2018-03-11T03:28:50.436Z,44
2018-03-11T03:29:50.488Z,43.92
2018-03-11T03:30:50.962Z,44.05
2018-03-11T03:31:50.443Z,44.01
2018-03-11T03:32:50.441Z,43.92
2018-03-11T03:33:50.436Z,44.02
2018-03-11T03:34:50.424Z,44.01
2018-03-11T03:35:50.555Z,43.89
2018-03-11T03:36:50.549Z,44.11
2018-03-11T03:37:50.447Z,43.98
2018-03-11T03:38:50.490Z,43.95
2018-03-11T03:39:50.427Z,44.07
2018-03-11T03:40:50.453Z,43.96
2018-03-11T03:41:50.700Z,43.86
2018-03-11T03:42:50.591Z,44
2018-03-11T03:43:50.567Z,43.95
2018-03-11T03:44:50.615Z,43.9
2018-03-11T03:45:50.504Z,44.05
2018-03-11T03:46:50.586Z,43.93
2018-03-11T03:47:50.461Z,43.89
2018-03-11T03:48:50.549Z,44.03
2018-03-11T03:49:50.591Z,43.97
2018-03-11T03:50:50.437Z,43.84
2018-03-11T03:51:50.557Z,44.08
2018-03-11T03:52:50.510Z,43.98
2018-03-11T03:53:50.426Z,43.89
2018-03-11T03:54:50.426Z,44
2018-03-11T03:55:50.413Z,43.98
2018-03-11T03:56:50.458Z,43.89
2018-03-11T03:57:50.413Z,44.03
2018-03-11T03:58:50.423Z,43.91
2018-03-11T03:59:50.474Z,43.88
2018-03-11T04:00:50.422Z,44.01
2018-03-11T04:01:50.455Z,43.98
2018-03-11T04:02:50.423Z,43.89
2018-03-11T04:03:50.422Z,44.08
2018-03-11T04:04:50.419Z,43.99
2018-03-11T04:05:50.461Z,43.87
2018-03-11T04:06:50.414Z,44.05
2018-03-11T04:07:50.413Z,43.99
2018-03-11T04:08:50.432Z,43.91
2018-03-11T04:09:50.454Z,44.05
2018-03-11T04:10:50.435Z,43.97
2018-03-11T04:11:50.448Z,43.83
2018-03-11T04:12:50.415Z,44.01
2018-03-11T04:13:50.414Z,43.93
2018-03-11T04:14:50.408Z,43.86
2018-03-11T04:15:50.417Z,44.01
2018-03-11T04:16:50.419Z,43.99
2018-03-11T04:17:50.452Z,43.91
2018-03-11T04:18:50.431Z,44.06
2018-03-11T04:19:50.415Z,44.01
2018-03-11T04:20:50.430Z,43.85
2018-03-11T04:21:50.436Z,44.06
2018-03-11T04:22:50.436Z,43.94
2018-03-11T04:23:50.423Z,43.85
2018-03-11T04:24:50.408Z,44.01
2018-03-11T04:25:50.454Z,43.95
2018-03-11T04:26:50.411Z,43.85
2018-03-11T04:27:50.454Z,44.03
2018-03-11T04:28:50.407Z,44
2018-03-11T04:29:50.423Z,43.91
2018-03-11T04:30:50.435Z,44.02
2018-03-11T04:31:50.404Z,43.96
2018-03-11T04:32:50.703Z,43.85
2018-03-11T04:33:50.416Z,44.04
2018-03-11T04:34:50.420Z,43.94
2018-03-11T04:35:50.420Z,43.88
2018-03-11T04:36:50.408Z,44.04
2018-03-11T04:37:50.452Z,44
2018-03-11T04:38:50.430Z,43.88
2018-03-11T04:39:50.437Z,44
2018-03-11T04:40:50.464Z,43.96
2018-03-11T04:41:50.408Z,43.92
2018-03-11T04:42:50.407Z,44.09
2018-03-11T04:43:50.423Z,43.99
2018-03-11T04:44:50.434Z,43.87
2018-03-11T04:45:50.445Z,44
2018-03-11T04:46:50.415Z,43.95
2018-03-11T04:47:50.468Z,43.83
2018-03-11T04:48:50.425Z,43.98
2018-03-11T04:49:50.417Z,43.99
2018-03-11T04:50:50.452Z,43.87
2018-03-11T04:51:50.409Z,43.97
2018-03-11T04:52:50.419Z,43.96
2018-03-11T04:53:50.564Z,43.87
2018-03-11T04:54:50.410Z,43.97
2018-03-11T04:55:50.408Z,43.89
2018-03-11T04:56:50.389Z,43.81
2018-03-11T04:57:50.403Z,44
2018-03-11T04:58:50.438Z,43.9
2018-03-11T04:59:50.395Z,43.82
2018-03-11T05:00:50.401Z,43.95
2018-03-11T05:01:50.410Z,43.88
2018-03-11T05:02:50.406Z,43.74
2018-03-11T05:03:50.421Z,43.94
2018-03-11T05:04:50.404Z,43.82
2018-03-11T05:05:50.406Z,43.76
2018-03-11T05:06:50.405Z,43.89
2018-03-11T05:07:50.393Z,43.77
2018-03-11T05:08:50.408Z,43.72
2018-03-11T05:09:50.445Z,43.86
2018-03-11T05:10:50.407Z,43.73
2018-03-11T05:11:50.454Z,43.7
2018-03-11T05:12:50.414Z,43.78
2018-03-11T05:13:50.397Z,43.65
2018-03-11T05:14:50.791Z,43.61
2018-03-11T05:15:50.419Z,43.79
2018-03-11T05:16:50.390Z,43.61
2018-03-11T05:17:50.427Z,43.64
2018-03-11T05:18:50.402Z,43.71
2018-03-11T05:19:50.585Z,43.58
2018-03-11T05:20:50.488Z,43.56
2018-03-11T05:21:50.463Z,43.7
2018-03-11T05:22:50.461Z,43.55
2018-03-11T05:23:50.404Z,43.46
2018-03-11T05:24:50.403Z,43.69
2018-03-11T05:25:50.394Z,43.47
2018-03-11T05:26:50.455Z,43.52
2018-03-11T05:27:50.378Z,43.68
2018-03-11T05:28:50.416Z,43.63
2018-03-11T05:29:50.390Z,43.52
2018-03-11T05:30:50.422Z,43.66
2018-03-11T05:31:50.462Z,43.52
2018-03-11T05:32:50.394Z,43.56
2018-03-11T05:33:50.404Z,43.58
2018-03-11T05:34:50.407Z,43.48
2018-03-11T05:35:50.394Z,43.45
2018-03-11T05:36:50.500Z,43.65
2018-03-11T05:37:50.480Z,43.48
2018-03-11T05:38:50.411Z,43.45
2018-03-11T05:39:50.395Z,43.6
2018-03-11T05:40:50.414Z,43.42
2018-03-11T05:41:50.402Z,43.48
2018-03-11T05:42:50.388Z,43.61
2018-03-11T05:43:50.436Z,43.46
2018-03-11T05:44:50.397Z,43.43
2018-03-11T05:45:50.391Z,43.68
2018-03-11T05:46:50.435Z,43.43
2018-03-11T05:47:50.388Z,43.49
2018-03-11T05:48:50.384Z,43.6
2018-03-11T05:49:50.406Z,43.38
2018-03-11T05:50:50.370Z,43.41
2018-03-11T05:51:50.385Z,43.54
2018-03-11T05:52:50.416Z,43.38
2018-03-11T05:53:50.397Z,43.39
2018-03-11T05:54:50.419Z,43.6
2018-03-11T05:55:50.374Z,43.32
2018-03-11T05:56:50.386Z,43.37
2018-03-11T05:57:50.385Z,43.52
2018-03-11T05:58:50.389Z,43.37
2018-03-11T05:59:50.411Z,43.41
2018-03-11T06:00:50.386Z,43.6
2018-03-11T06:01:50.387Z,43.31
2018-03-11T06:02:50.397Z,43.38
2018-03-11T06:03:50.385Z,43.56
2018-03-11T06:04:50.420Z,43.39
2018-03-11T06:05:50.373Z,43.38
2018-03-11T06:06:50.418Z,43.51
2018-03-11T06:07:50.376Z,43.38
2018-03-11T06:08:50.419Z,43.36
2018-03-11T06:09:50.412Z,43.43
2018-03-11T06:10:50.406Z,43.36
2018-03-11T06:11:50.397Z,43.42
2018-03-11T06:12:50.382Z,43.45
2018-03-11T06:13:50.378Z,43.33
2018-03-11T06:14:50.449Z,43.38
2018-03-11T06:15:50.381Z,43.55
2018-03-11T06:16:50.811Z,43.39
2018-03-11T06:17:50.419Z,43.45
2018-03-11T06:18:50.387Z,43.48
2018-03-11T06:19:50.385Z,43.35
2018-03-11T06:20:50.377Z,43.39
2018-03-11T06:21:50.387Z,43.5
2018-03-11T06:22:50.419Z,43.4
2018-03-11T06:23:50.384Z,43.4
2018-03-11T06:24:50.411Z,43.48
2018-03-11T06:25:50.386Z,43.38
2018-03-11T06:26:50.426Z,43.35
2018-03-11T06:27:50.364Z,43.5
2018-03-11T06:28:50.394Z,43.33
2018-03-11T06:29:50.433Z,43.36
2018-03-11T06:30:50.371Z,43.5
2018-03-11T06:31:50.373Z,43.31
2018-03-11T06:32:50.373Z,43.4
2018-03-11T06:33:50.370Z,43.45
2018-03-11T06:34:50.416Z,43.26
2018-03-11T06:35:50.390Z,43.29
2018-03-11T06:36:50.382Z,43.42
2018-03-11T06:37:50.379Z,43.22
2018-03-11T06:38:50.386Z,43.28
2018-03-11T06:39:50.380Z,43.39
2018-03-11T06:40:50.403Z,43.32
2018-03-11T06:41:50.385Z,43.28
2018-03-11T06:42:50.419Z,43.39
2018-03-11T06:43:50.379Z,43.22
2018-03-11T06:44:50.378Z,43.34
2018-03-11T06:45:50.370Z,43.33
2018-03-11T06:46:50.379Z,43.31
2018-03-11T06:47:50.379Z,43.22
2018-03-11T06:48:50.390Z,43.32
2018-03-11T06:49:50.333Z,43.19
2018-03-11T06:50:50.359Z,43.23
2018-03-11T06:51:50.375Z,43.33
2018-03-11T06:52:50.369Z,43.2
2018-03-11T06:53:50.372Z,43.19
2018-03-11T06:54:50.374Z,43.26
2018-03-11T06:55:50.362Z,43.15
2018-03-11T06:56:50.383Z,43.21
2018-03-11T06:57:50.367Z,43.27
2018-03-11T06:58:50.367Z,43.18
2018-03-11T06:59:50.377Z,43.21
2018-03-11T07:00:50.353Z,43.27
2018-03-11T07:01:50.358Z,43.13
2018-03-11T07:02:50.380Z,43.14
2018-03-11T07:03:50.458Z,43.22
2018-03-11T07:04:50.362Z,43.13
2018-03-11T07:05:50.360Z,43.09
2018-03-11T07:06:50.389Z,43.25
2018-03-11T07:07:50.388Z,43.16
2018-03-11T07:08:50.378Z,43.12
2018-03-11T07:09:50.385Z,43.22
2018-03-11T07:10:50.803Z,43.11
2018-03-11T07:11:50.368Z,43.14
2018-03-11T07:12:50.362Z,43.16
2018-03-11T07:13:50.380Z,43.03
2018-03-11T07:14:50.387Z,43.11
2018-03-11T07:15:50.349Z,43.14
2018-03-11T07:16:50.355Z,43.07
2018-03-11T07:17:50.383Z,43.07
2018-03-11T07:18:50.403Z,43.22
2018-03-11T07:19:50.358Z,43.17
2018-03-11T07:20:50.383Z,43.11
2018-03-11T07:21:50.408Z,43.2
2018-03-11T07:22:50.621Z,43.09
2018-03-11T07:23:50.360Z,43.1
2018-03-11T07:24:50.396Z,43.17
2018-03-11T07:25:50.362Z,43.04
2018-03-11T07:26:50.351Z,43.2
2018-03-11T07:27:50.620Z,43.18
2018-03-11T07:28:50.361Z,43.09
2018-03-11T07:29:50.360Z,43.14
2018-03-11T07:30:50.381Z,43.18
2018-03-11T07:31:50.360Z,43.02
2018-03-11T07:32:50.384Z,43.06
2018-03-11T07:33:50.356Z,43.12
2018-03-11T07:34:50.360Z,43.04
2018-03-11T07:35:50.342Z,43.07
2018-03-11T07:36:50.350Z,43.07
2018-03-11T07:37:50.728Z,42.96
2018-03-11T07:38:50.437Z,43.05
2018-03-11T07:39:50.358Z,43.1
2018-03-11T07:40:50.368Z,42.97
2018-03-11T07:41:50.351Z,42.97
2018-03-11T07:42:50.378Z,43.03
2018-03-11T07:43:50.359Z,42.98
2018-03-11T07:44:50.392Z,42.96
2018-03-11T07:45:50.376Z,43.05
2018-03-11T07:46:50.362Z,42.94
2018-03-11T07:47:50.387Z,42.99
2018-03-11T07:48:50.376Z,43.05
2018-03-11T07:49:50.374Z,42.89
2018-03-11T07:50:50.420Z,42.97
2018-03-11T07:51:50.391Z,42.98
2018-03-11T07:52:50.378Z,42.85
2018-03-11T07:53:50.398Z,42.94
2018-03-11T07:54:50.370Z,43.01
2018-03-11T07:55:50.376Z,42.87
2018-03-11T07:56:50.358Z,42.92
2018-03-11T07:57:50.354Z,43
2018-03-11T07:58:50.362Z,42.89
2018-03-11T07:59:50.391Z,43
2018-03-11T08:00:50.368Z,42.96
2018-03-11T08:01:50.652Z,42.85
2018-03-11T08:02:50.695Z,42.94
2018-03-11T08:03:50.355Z,42.96
2018-03-11T08:04:50.445Z,42.91
2018-03-11T08:05:50.432Z,42.89
2018-03-11T08:06:50.358Z,42.93
2018-03-11T08:07:50.387Z,42.84
2018-03-11T08:08:50.368Z,42.93
2018-03-11T08:09:50.366Z,42.93
2018-03-11T08:10:50.355Z,42.83
2018-03-11T08:11:50.376Z,42.93
2018-03-11T08:12:50.376Z,42.95
2018-03-11T08:13:50.347Z,42.91
2018-03-11T08:14:50.348Z,42.91
2018-03-11T08:15:50.350Z,42.91
2018-03-11T08:16:50.350Z,42.79
2018-03-11T08:17:50.492Z,42.89
2018-03-11T08:18:50.380Z,43.17
2018-03-11T08:19:50.355Z,43.15
2018-03-11T08:20:50.360Z,43.12
2018-03-11T08:21:50.370Z,43.2
2018-03-11T08:22:50.390Z,43.12
2018-03-11T08:23:50.359Z,43.09
2018-03-11T08:24:50.356Z,43.07
2018-03-11T08:25:50.778Z,42.98
2018-03-11T08:26:50.367Z,43.02
2018-03-11T08:27:50.394Z,42.98
2018-03-11T08:28:50.377Z,42.96
2018-03-11T08:29:50.368Z,42.93
2018-03-11T08:30:50.347Z,43.02
2018-03-11T08:31:50.362Z,42.92
2018-03-11T08:32:50.364Z,42.91
2018-03-11T08:33:50.360Z,42.94
2018-03-11T08:34:50.334Z,42.85
2018-03-11T08:35:50.360Z,43.13
2018-03-11T08:36:50.353Z,42.94
2018-03-11T08:37:50.344Z,42.93
2018-03-11T08:38:50.359Z,42.93
2018-03-11T08:39:50.383Z,42.97
2018-03-11T08:40:50.442Z,43.13
2018-03-11T08:41:50.598Z,43.15
2018-03-11T08:42:50.836Z,43.65
2018-03-11T08:43:50.338Z,43.58
2018-03-11T08:44:50.405Z,43.82
2018-03-11T08:45:50.353Z,44.06
2018-03-11T08:46:50.340Z,44.06
2018-03-11T08:47:50.347Z,44.13
2018-03-11T08:48:50.354Z,45.08
2018-03-11T08:49:50.704Z,44.35
2018-03-11T08:50:50.369Z,44.58
2018-03-11T08:51:50.359Z,46.12
2018-03-11T08:52:50.460Z,45.32
2018-03-11T08:53:51.195Z,44.63
2018-03-11T08:54:50.391Z,45.66
2018-03-11T08:55:50.668Z,44.8
2018-03-11T08:56:50.363Z,45.63
2018-03-11T08:57:50.362Z,45.84
2018-03-11T08:58:50.353Z,44.71
2018-03-11T08:59:50.358Z,44.19
2018-03-11T09:00:50.380Z,45.9
2018-03-11T09:01:50.409Z,45
2018-03-11T09:02:50.356Z,44.15
2018-03-11T09:03:50.353Z,45.27
2018-03-11T09:04:50.386Z,43.9
2018-03-11T09:05:50.353Z,44.01
2018-03-11T09:06:50.339Z,45.71
2018-03-11T09:07:50.325Z,43.76
2018-03-11T09:08:50.188Z,43.82
2018-03-11T09:09:50.376Z,45.78
2018-03-11T09:10:50.350Z,44.05
2018-03-11T09:11:50.333Z,44.37
2018-03-11T09:12:50.344Z,45.63
2018-03-11T09:13:50.386Z,44.12
2018-03-11T09:14:50.316Z,44.31
2018-03-11T09:15:50.368Z,46.09
2018-03-11T09:16:50.332Z,44.2
2018-03-11T09:17:50.400Z,44.32
2018-03-11T09:18:50.332Z,46.12
2018-03-11T09:19:50.340Z,45.42
2018-03-11T09:20:50.614Z,45.06
2018-03-11T09:21:50.337Z,45.92
2018-03-11T09:22:50.339Z,45.4
2018-03-11T09:23:50.348Z,45.21
2018-03-11T09:24:50.372Z,46.33
2018-03-11T09:25:50.363Z,44.88
2018-03-11T09:26:50.345Z,44.91
2018-03-11T09:27:50.347Z,46.27
2018-03-11T09:28:50.370Z,45.13
2018-03-11T09:29:50.355Z,45.05
2018-03-11T09:30:50.378Z,46.15
2018-03-11T09:31:50.323Z,44.89
2018-03-11T09:32:50.391Z,45.16
2018-03-11T09:33:50.342Z,46.32
2018-03-11T09:34:50.644Z,45.39
2018-03-11T09:35:50.362Z,44.93
2018-03-11T09:36:50.330Z,46.06
2018-03-11T09:37:50.338Z,44.97
2018-03-11T09:38:50.451Z,45.55
2018-03-11T09:39:50.450Z,46.34
2018-03-11T09:40:50.435Z,44.89
2018-03-11T09:41:50.339Z,44.24
2018-03-11T09:42:50.322Z,45.13
2018-03-11T09:43:50.347Z,44.05
2018-03-11T09:44:50.332Z,43.95
2018-03-11T09:45:50.407Z,44.53
2018-03-11T09:46:50.337Z,43.82
2018-03-11T09:47:50.346Z,43.75
2018-03-11T09:48:50.350Z,44.38
2018-03-11T09:49:50.334Z,43.73
2018-03-11T09:50:50.338Z,43.67
2018-03-11T09:51:50.331Z,44.21
2018-03-11T09:52:50.319Z,43.61
2018-03-11T09:53:50.343Z,43.88
2018-03-11T09:54:50.403Z,44.15
2018-03-11T09:55:50.323Z,43.68
2018-03-11T09:56:51.211Z,43.56
2018-03-11T09:57:50.331Z,43.97
2018-03-11T09:58:50.344Z,43.58
2018-03-11T09:59:50.335Z,43.58
2018-03-11T10:00:50.192Z,44.14
2018-03-11T10:01:50.320Z,43.57
2018-03-11T10:02:50.455Z,43.61
2018-03-11T10:03:50.316Z,43.83
2018-03-11T10:04:50.336Z,44.04
2018-03-11T10:05:50.323Z,44.22
2018-03-11T10:06:50.351Z,44.56
2018-03-11T10:07:50.352Z,44.63
2018-03-11T10:08:50.338Z,45.09
2018-03-11T10:09:50.367Z,45.15
2018-03-11T10:10:50.339Z,44.75
2018-03-11T10:11:50.358Z,44.92
2018-03-11T10:12:50.342Z,45.32
2018-03-11T10:13:50.437Z,44.63
2018-03-11T10:14:50.320Z,44.72
2018-03-11T10:15:34.395Z,48.34
2018-03-11T10:16:34.381Z,43.86
2018-03-11T10:17:34.418Z,44.9
2018-03-11T10:18:34.320Z,43.7
2018-03-11T10:19:34.322Z,43.41
2018-03-11T10:20:34.370Z,43.29
2018-03-11T10:21:34.348Z,43.3
2018-03-11T10:22:34.342Z,43.31
2018-03-11T10:23:34.321Z,43.28
2018-03-11T10:24:34.347Z,43.3
2018-03-11T10:25:34.317Z,43.26
2018-03-11T10:26:34.314Z,43.23
2018-03-11T10:27:34.314Z,43.18
2018-03-11T10:28:34.304Z,43.29
2018-03-11T10:29:34.338Z,43.19
2018-03-11T10:30:34.342Z,43.27
2018-03-11T10:31:34.338Z,43.2
2018-03-11T10:32:34.316Z,43.14
2018-03-11T10:33:52.192Z,43.18
2018-03-11T10:33:58.959Z,42.87
2018-03-11T10:34:28.138Z,47.13
2018-03-11T10:35:28.277Z,43.71
2018-03-11T10:36:28.087Z,42.78
2018-03-11T10:37:28.240Z,42.84
2018-03-11T10:38:28.076Z,42.93
2018-03-11T10:39:28.127Z,43.01
2018-03-11T10:40:28.080Z,42.96
2018-03-11T10:41:28.084Z,42.79
2018-03-11T10:42:28.166Z,42
2018-03-11T10:43:28.104Z,42.27
2018-03-11T10:44:28.457Z,42.49
2018-03-11T10:45:28.079Z,42.55
2018-03-11T10:46:28.070Z,42.68
2018-03-11T10:47:28.359Z,42.74
2018-03-11T10:48:28.087Z,42.66
2018-03-11T10:49:28.111Z,42.73
2018-03-11T10:50:28.084Z,42.79
2018-03-11T10:51:28.094Z,42.69
2018-03-11T10:52:28.086Z,42.71
2018-03-11T10:53:28.105Z,42.81
2018-03-11T13:46:03.532Z,42.37
2018-03-11T13:46:18.454Z,42.33
2018-03-11T13:47:18.527Z,42.43
2018-03-11T13:57:47.819Z,42.76
2018-03-11T13:58:47.992Z,42.78
2018-03-11T13:59:47.766Z,42.74
2018-03-11T14:00:47.606Z,42.75
2018-03-11T14:01:47.661Z,42.76
2018-03-11T14:02:47.636Z,42.76
2018-03-11T14:03:47.915Z,42.8
2018-03-11T14:04:47.724Z,42.86
2018-03-11T14:05:47.659Z,42.96
2018-03-11T14:06:47.606Z,42.95
2018-03-11T14:07:47.660Z,42.9
2018-03-11T14:08:47.656Z,43.02
2018-03-11T14:09:47.627Z,42.97
2018-03-11T14:10:47.639Z,42.93
2018-03-11T14:11:47.693Z,42.99
2018-03-11T14:12:47.618Z,42.98
2018-03-11T14:13:47.650Z,42.99
2018-03-11T14:14:47.693Z,43.02
2018-03-11T14:15:47.621Z,42.93
2018-03-11T14:16:47.684Z,43.01
2018-03-11T14:17:47.649Z,43.01
2018-03-11T14:18:47.624Z,43
2018-03-11T14:19:47.670Z,43.65
2018-03-11T14:20:47.623Z,43.35
2018-03-11T14:21:47.632Z,43.34
2018-03-11T14:22:47.644Z,43.3
2018-03-11T14:23:47.654Z,43.18
2018-03-11T14:24:47.613Z,43.43
2018-03-11T14:25:47.678Z,43.22
2018-03-11T14:26:47.650Z,43.33
2018-03-11T14:27:47.616Z,43.29
2018-03-11T14:28:47.731Z,43.31
2018-03-11T14:29:47.655Z,43.36
2018-03-11T14:30:47.609Z,43.17
2018-03-11T14:31:47.668Z,43.11
2018-03-11T14:32:47.652Z,43.3
2018-03-11T14:33:47.631Z,43.18
2018-03-11T14:34:48.074Z,43.21
2018-03-11T14:35:47.644Z,43.39
2018-03-11T14:36:47.634Z,43.57
2018-03-11T14:37:47.685Z,43.42
2018-03-11T14:38:47.642Z,43.42
2018-03-11T14:39:47.659Z,43.42
2018-03-11T14:40:47.744Z,43.52
2018-03-11T14:41:47.634Z,43.42
2018-03-11T14:42:47.635Z,43.45
2018-03-11T14:43:47.766Z,43.43
2018-03-11T14:44:47.612Z,43.45
2018-03-11T14:45:47.634Z,43.47
2018-03-11T14:46:47.638Z,43.32
2018-03-11T14:47:47.924Z,43.39
2018-03-11T14:48:47.625Z,43.36
2018-03-11T14:49:47.630Z,43.3
2018-03-11T14:50:47.652Z,43.25
2018-03-11T14:51:47.794Z,43.22
2018-03-11T14:52:47.757Z,43.19
2018-03-11T14:53:47.753Z,43.19
2018-03-11T14:54:47.790Z,43.26
2018-03-11T14:55:47.749Z,43.17
2018-03-11T14:56:47.628Z,43.19
2018-03-11T14:57:47.656Z,43.07
2018-03-11T14:58:47.622Z,43.05
2018-03-11T14:59:47.645Z,43.07
2018-03-11T15:00:47.614Z,43.02
2018-03-11T15:01:47.840Z,43.02
2018-03-11T15:02:47.707Z,43
2018-03-11T15:03:47.601Z,43
2018-03-11T15:04:47.611Z,42.95
2018-03-11T15:05:47.618Z,42.93
2018-03-11T15:06:47.648Z,42.89
2018-03-11T15:07:48.030Z,42.88
2018-03-11T15:08:47.628Z,42.84
2018-03-11T15:09:47.608Z,42.82
2018-03-11T15:10:47.634Z,42.84
2018-03-11T15:11:47.630Z,42.79
2018-03-11T15:12:47.619Z,42.8
2018-03-11T15:13:47.722Z,42.81
2018-03-11T15:14:47.680Z,42.76
2018-03-11T15:15:47.589Z,42.76
2018-03-11T15:16:47.652Z,42.76
2018-03-11T15:17:47.664Z,42.73
2018-03-11T15:18:47.616Z,42.76
2018-03-11T15:19:47.621Z,42.79
2018-03-11T15:20:47.629Z,42.71
2018-03-11T15:21:47.611Z,42.71
2018-03-11T15:22:47.619Z,42.72
2018-03-11T15:23:47.647Z,42.68
2018-03-11T15:24:47.593Z,42.67
2018-03-11T15:25:47.644Z,42.73
2018-03-11T15:26:47.600Z,42.72
2018-03-11T15:27:47.857Z,42.7
2018-03-11T15:28:47.633Z,42.7
2018-03-11T15:29:47.600Z,42.71
2018-03-11T15:30:47.596Z,42.69
2018-03-11T15:31:47.623Z,42.68
2018-03-11T15:32:47.638Z,42.63
2018-03-11T15:33:47.598Z,42.61
2018-03-11T15:34:47.623Z,42.63
2018-03-11T15:35:47.601Z,42.63
2018-03-11T15:36:47.600Z,42.64
2018-03-11T15:37:48.011Z,42.6
2018-03-11T15:38:47.631Z,42.62
2018-03-11T15:39:47.586Z,42.58
2018-03-11T15:40:47.711Z,42.6
2018-03-11T15:41:47.714Z,42.58
2018-03-11T15:42:47.696Z,42.59
2018-03-11T15:43:47.742Z,42.55
2018-03-11T15:44:47.662Z,42.51
2018-03-11T15:45:47.586Z,42.59
2018-03-11T15:46:47.641Z,42.53
2018-03-11T15:47:47.641Z,42.47
2018-03-11T15:48:47.584Z,42.45
2018-03-11T15:49:47.611Z,42.5
2018-03-11T15:50:47.630Z,42.51
2018-03-11T15:51:47.570Z,42.42
2018-03-11T15:52:47.658Z,42.45
2018-03-11T15:53:47.721Z,42.42
2018-03-11T15:54:47.599Z,42.41
2018-03-11T15:55:47.583Z,42.37
2018-03-11T15:56:47.629Z,42.4